Madison, MN

9:47 PM CST on December 12, 2017 (GMT -0600)
Madison-Lac Qui Parle County

Weather History for KDXX - February, 2013

Change the Weather History Date:

Tuesday, February 5, 2013

  Actual Average (KAQP) Record (KAQP)
Temperature  
Mean Temperature 20 °F -  
Max Temperature 33 °F 23 °F 48 °F (2005)
Min Temperature 8 °F 6 °F -18 °F (2007)
Degree Days  
Heating Degree Days 44    
Moisture  
Dew Point 17 °F    
Average Humidity 81    
Maximum Humidity 93    
Minimum Humidity 73    
Precipitation  
Precipitation 0.00 in - - ()
Sea Level Pressure  
Sea Level Pressure 29.89 in    
Wind  
Wind Speed 11 mph (NW)    
Max Wind Speed 21 mph    
Max Gust Speed 25 mph    
Visibility 10 miles    
Events Snow    
Averages and records for this station are not official NWS values.
T = Trace of Precipitation, MM = Missing Value Source: NWS Daily Summary

Daily Weather History Graph

Daily Weather History Graph

Search for Another Location

Airport or City:

Trip Planner

Search our weather history database for the weather conditions in past years. The results will help you decide how hot, cold, wet, or windy it might be!

Date:

Astronomy

Feb. 05, 2013 Rise Set
Actual Time 7:39 AM CST 5:38 PM CST
Civil Twilight 7:08 AM CST 6:09 PM CST
Nautical Twilight 6:33 AM CST 6:44 PM CST
Astronomical Twilight 5:59 AM CST 7:18 PM CST
Moon 3:27 AM CST (2/5) 12:52 PM CST (2/5)
Length of Visible Light 11h 01m
Length of Day
9h 59m
Waning Crescent, 26% of the Moon is Illuminated
Feb 5
Waning Crescent
Feb 10
New
Feb 17
First Quarter
Feb 25
Full
Mar 4
Last Quarter

Hourly Weather History & Observations

Time (CST) Temp. Windchill Dew Point Humidity Pressure Visibility Wind Dir Wind Speed Gust Speed Precip Events Conditions
12:13 AM 26.6 °F 18.2 °F 19.4 °F 74% 29.66 in 10.0 mi WSW 8.1 mph - N/A   Clear
12:34 AM 26.6 °F 18.2 °F 21.2 °F 80% 29.66 in 10.0 mi West 8.1 mph - N/A   Clear
12:53 AM 26.6 °F 14.3 °F 21.2 °F 80% 29.65 in 10.0 mi West 16.1 mph 19.6 mph N/A   Clear
1:13 AM 26.6 °F 15.7 °F 21.2 °F 80% 29.65 in 10.0 mi West 12.7 mph - N/A   Clear
1:34 AM 28.4 °F 17.5 °F 21.2 °F 74% 29.64 in 10.0 mi West 13.8 mph - N/A   Clear
1:53 AM 28.4 °F 18.5 °F 24.8 °F 86% 29.64 in 10.0 mi West 11.5 mph - N/A   Mostly Cloudy
2:14 AM 30.2 °F 19.8 °F 24.8 °F 80% 29.65 in 10.0 mi West 13.8 mph - N/A   Overcast
2:34 AM 30.2 °F 21.3 °F 24.8 °F 80% 29.65 in 10.0 mi WNW 10.4 mph - N/A   Mostly Cloudy
2:53 AM 30.2 °F 23.4 °F 24.8 °F 80% 29.65 in 10.0 mi WNW 6.9 mph - N/A   Scattered Clouds
3:14 AM 32.0 °F 22.5 °F 24.8 °F 75% 29.64 in 10.0 mi WNW 12.7 mph - N/A   Mostly Cloudy
3:33 AM 30.2 °F 21.3 °F 26.6 °F 86% 29.65 in 10.0 mi North 10.4 mph - N/A   Overcast
3:53 AM 30.2 °F 23.4 °F 26.6 °F 86% 29.65 in 7.0 mi NW 6.9 mph - N/A   Scattered Clouds
4:14 AM 30.2 °F 24.3 °F 26.6 °F 86% 29.66 in 5.0 mi NW 5.8 mph - N/A Snow Light Snow
4:33 AM 32.0 °F 25.6 °F 26.6 °F 80% 29.67 in 7.0 mi West 6.9 mph - N/A Snow Light Snow
4:54 AM 32.0 °F 24.8 °F 28.4 °F 87% 29.68 in 10.0 mi WNW 8.1 mph - N/A   Overcast
5:14 AM 33.8 °F 26.4 °F 28.4 °F 81% 29.68 in 10.0 mi WNW 9.2 mph - N/A Snow Light Snow
5:33 AM 33.8 °F 27.0 °F 28.4 °F 81% 29.69 in 10.0 mi NW 8.1 mph - N/A   Overcast
6:13 AM 33.8 °F 26.4 °F 28.4 °F 81% 29.71 in 10.0 mi WNW 9.2 mph - N/A   Overcast
6:34 AM 33.8 °F 25.8 °F 28.4 °F 81% 29.71 in 10.0 mi NW 10.4 mph - N/A   Overcast
6:54 AM 33.8 °F 27.0 °F 28.4 °F 81% 29.72 in 10.0 mi NW 8.1 mph - N/A   Overcast
7:13 AM 33.8 °F 26.4 °F 28.4 °F 81% 29.73 in 10.0 mi NW 9.2 mph - N/A   Overcast
7:34 AM 33.8 °F 25.8 °F 28.4 °F 81% 29.75 in 10.0 mi NNW 10.4 mph - N/A   Overcast
7:54 AM 32.0 °F 21.6 °F 28.4 °F 87% 29.77 in 10.0 mi North 15.0 mph - N/A   Overcast
8:13 AM 30.2 °F 19.8 °F 26.6 °F 86% 29.78 in 10.0 mi NNW 13.8 mph - N/A   Overcast
8:34 AM 30.2 °F 20.8 °F 26.6 °F 86% 29.79 in 10.0 mi North 11.5 mph - N/A   Overcast
8:54 AM 30.2 °F 19.3 °F 26.6 °F 86% 29.82 in 10.0 mi North 15.0 mph 19.6 mph N/A   Mostly Cloudy
9:13 AM 26.6 °F 13.4 °F 23.0 °F 86% 29.85 in 5.0 mi North 18.4 mph - N/A   Scattered Clouds
9:34 AM 23.0 °F 9.2 °F 19.4 °F 86% 29.87 in 5.0 mi NNW 17.3 mph 25.3 mph N/A   Mostly Cloudy
9:53 AM 21.2 °F 6.0 °F 19.4 °F 93% 29.89 in 7.0 mi North 19.6 mph - N/A   Scattered Clouds
10:13 AM 19.4 °F 3.6 °F 15.8 °F 86% 29.91 in 7.0 mi NNW 19.6 mph 24.2 mph N/A   Scattered Clouds
10:34 AM 19.4 °F 3.2 °F 15.8 °F 86% 29.92 in 7.0 mi NNW 20.7 mph - N/A   Scattered Clouds
10:53 AM 17.6 °F 1.7 °F 15.8 °F 93% 29.94 in 10.0 mi NNW 18.4 mph 23.0 mph N/A   Scattered Clouds
11:14 AM 17.6 °F 2.2 °F 14.0 °F 86% 29.96 in 10.0 mi NNW 17.3 mph - N/A   Mostly Cloudy
11:34 AM 17.6 °F 3.2 °F 12.2 °F 79% 29.97 in 10.0 mi NNW 15.0 mph - N/A   Mostly Cloudy
11:53 AM 17.6 °F 4.3 °F 12.2 °F 79% 29.98 in 10.0 mi NNW 12.7 mph - N/A   Mostly Cloudy
12:14 PM 17.6 °F 1.7 °F 12.2 °F 79% 29.98 in 10.0 mi NNW 18.4 mph - N/A   Overcast
12:34 PM 17.6 °F 2.7 °F 12.2 °F 79% 29.98 in 10.0 mi NNW 16.1 mph - N/A   Overcast
12:53 PM 17.6 °F 2.2 °F 12.2 °F 79% 29.99 in 10.0 mi NNW 17.3 mph 21.9 mph N/A   Overcast
1:14 PM 17.6 °F 2.7 °F 12.2 °F 79% 29.99 in 10.0 mi NNW 16.1 mph - N/A   Overcast
1:34 PM 17.6 °F 2.7 °F 12.2 °F 79% 29.99 in 10.0 mi NW 16.1 mph - N/A   Overcast
1:53 PM 17.6 °F 2.7 °F 10.4 °F 73% 30.00 in 10.0 mi NW 16.1 mph - N/A   Overcast
2:14 PM 17.6 °F 2.2 °F 10.4 °F 73% 30.00 in 10.0 mi NNW 17.3 mph - N/A   Overcast
2:34 PM 17.6 °F 5.0 °F 10.4 °F 73% 30.00 in 10.0 mi NW 11.5 mph - N/A   Overcast
2:53 PM 17.6 °F 4.3 °F 10.4 °F 73% 30.01 in 10.0 mi NNW 12.7 mph - N/A   Overcast
3:14 PM 17.6 °F 5.0 °F 10.4 °F 73% 30.02 in 10.0 mi NW 11.5 mph - N/A   Overcast
3:34 PM 17.6 °F 5.0 °F 10.4 °F 73% 30.02 in 10.0 mi NNW 11.5 mph - N/A   Overcast
3:53 PM 17.6 °F 4.3 °F 10.4 °F 73% 30.03 in 10.0 mi NW 12.7 mph - N/A   Overcast
4:14 PM 15.8 °F 3.4 °F 10.4 °F 79% 30.03 in 10.0 mi NW 10.4 mph - N/A   Overcast
4:33 PM 15.8 °F 2.7 °F 10.4 °F 79% 30.03 in 10.0 mi NNW 11.5 mph - N/A   Overcast
4:54 PM 15.8 °F 4.2 °F 10.4 °F 79% 30.04 in 10.0 mi NW 9.2 mph - N/A   Overcast
5:13 PM 15.8 °F 5.1 °F 10.4 °F 79% 30.04 in 10.0 mi NW 8.1 mph - N/A   Overcast
5:33 PM 15.8 °F 6.1 °F 10.4 °F 79% 30.04 in 10.0 mi NW 6.9 mph - N/A   Overcast
5:54 PM 17.6 °F 8.2 °F 10.4 °F 73% 30.04 in 10.0 mi NNW 6.9 mph - N/A   Overcast
6:13 PM 17.6 °F 7.3 °F 10.4 °F 73% 30.04 in 10.0 mi North 8.1 mph - N/A   Overcast
6:34 PM 15.8 °F 7.2 °F 10.4 °F 79% 30.05 in 10.0 mi North 5.8 mph - N/A   Overcast
6:54 PM 15.8 °F 7.2 °F 10.4 °F 79% 30.05 in 10.0 mi NNE 5.8 mph - N/A   Overcast
7:13 PM 15.8 °F 7.2 °F 8.6 °F 73% 30.05 in 10.0 mi North 5.8 mph - N/A   Overcast
7:54 PM 14.0 °F 6.5 °F 8.6 °F 79% 30.06 in 10.0 mi NE 4.6 mph - N/A   Overcast
8:34 PM 12.2 °F 4.3 °F 8.6 °F 85% 30.05 in 10.0 mi ENE 4.6 mph - N/A   Overcast
8:54 PM 12.2 °F - 8.6 °F 85% 30.05 in 10.0 mi Calm Calm - N/A   Overcast
9:13 PM 12.2 °F - 6.8 °F 79% 30.05 in 10.0 mi Calm Calm - N/A   Mostly Cloudy
9:34 PM 12.2 °F - 6.8 °F 79% 30.06 in 10.0 mi Calm Calm - N/A   Clear
9:54 PM 12.2 °F - 6.8 °F 79% 30.06 in 10.0 mi Calm Calm - N/A   Clear
10:13 PM 8.6 °F 2.0 °F 6.8 °F 92% 30.07 in 10.0 mi SSE 3.5 mph - N/A   Clear
10:34 PM 8.6 °F 2.0 °F 6.8 °F 92% 30.07 in 10.0 mi SSW 3.5 mph - N/A   Clear
10:54 PM 10.4 °F 2.2 °F 6.8 °F 85% 30.07 in 10.0 mi SSE 4.6 mph - N/A   Clear
11:13 PM 8.6 °F 0.1 °F 5.0 °F 85% 30.07 in 10.0 mi South 4.6 mph - N/A   Clear
11:34 PM 8.6 °F -1.3 °F 6.8 °F 92% 30.07 in 10.0 mi SSE 5.8 mph - N/A   Clear
11:54 PM 10.4 °F 2.2 °F 6.8 °F 85% 30.06 in 10.0 mi SSE 4.6 mph - N/A   Clear